Time;durP1;ratioP1;P1;durP2;ratioP2;P2;SDS_P1;SDS_P2;PMS_P1;PMS_P2;Temp;Humidity;BMP_temperature;BMP_pressure;BME280_temperature;BME280_humidity;BME280_pressure;Samples;Min_cycle;Max_cycle;Signal;HPM_P1;HPM_P2
2023/12/21 00:00:09;;;;;;;0.90;0.82;;;4.40;99.90;;;;;;4971734;28;20206;-78
2023/12/21 00:02:36;;;;;;;1.35;1.13;;;4.40;99.90;;;;;;4971753;28;20663;-75
2023/12/21 00:05:03;;;;;;;1.25;0.90;;;4.40;99.90;;;;;;4971982;28;20224;-77
2023/12/21 00:07:29;;;;;;;0.70;0.70;;;4.40;99.90;;;;;;4971714;28;20214;-77
2023/12/21 00:09:58;;;;;;;2.55;1.08;;;4.50;99.90;;;;;;4971327;28;20226;-78
2023/12/21 00:12:24;;;;;;;1.52;0.90;;;4.50;99.90;;;;;;4971811;28;20283;-78
2023/12/21 00:14:51;;;;;;;1.08;0.75;;;4.50;99.90;;;;;;4971726;28;20695;-78
2023/12/21 04:31:08;;;;;;;0.70;0.65;;;5.20;99.90;;;;;;5875123;23;20673;-92
2023/12/21 04:33:34;;;;;;;1.00;0.70;;;5.20;99.90;;;;;;5005185;28;20232;-93
2023/12/21 04:36:02;;;;;;;0.70;0.70;;;5.20;99.90;;;;;;5025642;28;20210;-94
2023/12/21 04:38:29;;;;;;;0.80;0.60;;;5.30;99.90;;;;;;5020411;28;20191;-94
2023/12/21 04:40:56;;;;;;;0.70;0.60;;;5.20;99.90;;;;;;5026930;23;20230;-75
2023/12/21 04:43:25;;;;;;;0.80;0.73;;;5.10;99.90;;;;;;5012554;28;20567;-74
2023/12/21 04:45:52;;;;;;;0.70;0.60;;;5.10;99.90;;;;;;5015419;28;20599;-75
2023/12/21 04:48:20;;;;;;;1.13;0.80;;;5.10;99.90;;;;;;5013691;28;20202;-76
2023/12/21 04:50:48;;;;;;;0.80;0.70;;;5.10;99.90;;;;;;5013605;28;20223;-76
2023/12/21 04:53:14;;;;;;;0.70;0.60;;;5.10;99.90;;;;;;5013609;28;20221;-76
2023/12/21 04:55:41;;;;;;;0.70;0.60;;;5.10;99.90;;;;;;5013894;28;20232;-76
2023/12/21 04:58:08;;;;;;;0.70;0.60;;;5.10;99.90;;;;;;5013383;28;20317;-73
2023/12/21 05:00:35;;;;;;;0.80;0.70;;;5.10;99.90;;;;;;5013655;28;20218;-79
2023/12/21 05:03:02;;;;;;;0.80;0.70;;;5.10;99.90;;;;;;5015226;28;20221;-79
2023/12/21 05:05:30;;;;;;;0.70;0.60;;;5.20;99.90;;;;;;5013611;28;20210;-79
2023/12/21 05:07:57;;;;;;;0.70;0.60;;;5.20;99.90;;;;;;5013651;28;20213;-76
2023/12/21 05:10:24;;;;;;;0.70;0.60;;;5.10;99.90;;;;;;5012752;28;20232;-76
2023/12/21 05:12:51;;;;;;;0.70;0.60;;;5.20;99.90;;;;;;5014428;28;20582;-79
2023/12/21 05:15:18;;;;;;;0.70;0.60;;;5.20;99.90;;;;;;5013694;28;20554;-78
2023/12/21 05:17:45;;;;;;;1.02;0.80;;;5.20;99.90;;;;;;5011482;28;20690;-79
2023/12/21 05:20:12;;;;;;;0.70;0.60;;;5.20;99.90;;;;;;5013275;28;20210;-77
2023/12/21 05:22:42;;;;;;;0.70;0.60;;;5.20;99.90;;;;;;5013355;28;20316;-77
2023/12/21 05:25:09;;;;;;;1.00;0.70;;;5.30;99.90;;;;;;5011528;28;20205;-78
2023/12/21 05:27:36;;;;;;;1.10;0.77;;;5.30;99.90;;;;;;5013336;28;20212;-79
2023/12/21 05:30:03;;;;;;;1.55;0.80;;;5.30;99.90;;;;;;5012672;28;20607;-78
2023/12/21 05:32:30;;;;;;;0.80;0.70;;;5.40;99.90;;;;;;5013002;28;20250;-79
2023/12/21 05:34:57;;;;;;;0.75;0.65;;;5.40;99.90;;;;;;5011279;28;20214;-78
2023/12/21 05:37:23;;;;;;;0.95;0.73;;;5.40;99.90;;;;;;5012762;28;20219;-77
2023/12/21 05:39:52;;;;;;;0.80;0.70;;;5.40;99.90;;;;;;5011880;28;20261;-78
2023/12/21 05:42:18;;;;;;;1.20;0.80;;;5.40;99.90;;;;;;5012594;28;20253;-78
2023/12/21 05:44:45;;;;;;;4.60;0.95;;;5.40;99.90;;;;;;5013263;28;20206;-78
2023/12/21 05:47:12;;;;;;;0.70;0.68;;;5.30;99.90;;;;;;5012456;28;20672;-78
2023/12/21 05:49:38;;;;;;;0.70;0.60;;;5.30;99.90;;;;;;5012773;28;20210;-77
2023/12/21 05:52:05;;;;;;;0.88;0.88;;;5.30;99.90;;;;;;5012572;28;20229;-76
2023/12/21 05:54:32;;;;;;;0.70;0.60;;;5.30;99.90;;;;;;5012957;28;20203;-76
2023/12/21 05:57:02;;;;;;;0.95;0.70;;;5.30;99.90;;;;;;5012808;28;20721;-77
2023/12/21 05:59:28;;;;;;;0.80;0.70;;;5.30;99.90;;;;;;5012353;28;20312;-75
2023/12/21 06:01:55;;;;;;;0.70;0.60;;;5.40;99.90;;;;;;5012808;28;20230;-75
2023/12/21 06:04:22;;;;;;;0.70;0.60;;;5.30;99.90;;;;;;5013113;28;20206;-77
2023/12/21 06:06:49;;;;;;;0.82;0.70;;;5.40;99.90;;;;;;5013289;28;20210;-77
2023/12/21 06:09:16;;;;;;;0.80;0.70;;;5.40;99.90;;;;;;5012448;28;20211;-77
2023/12/21 06:11:43;;;;;;;0.70;0.70;;;5.40;99.90;;;;;;5013221;28;20581;-77
2023/12/21 06:14:11;;;;;;;0.70;0.60;;;5.40;99.90;;;;;;5013069;28;20644;-77
2023/12/21 06:16:37;;;;;;;0.70;0.60;;;5.40;99.90;;;;;;5012787;28;20214;-76
2023/12/21 06:19:09;;;;;;;0.85;0.77;;;5.30;99.90;;;;;;5013096;28;20213;-74
2023/12/21 06:21:37;;;;;;;0.70;0.60;;;5.40;99.90;;;;;;5006241;28;20780;-73
2023/12/21 06:24:04;;;;;;;0.80;0.70;;;5.30;99.90;;;;;;5012322;28;20206;-73
2023/12/21 06:26:31;;;;;;;0.70;0.70;;;5.40;99.90;;;;;;5012272;28;20206;-73
2023/12/21 06:28:57;;;;;;;0.90;0.70;;;5.30;99.90;;;;;;5011981;28;20683;-74
2023/12/21 06:31:26;;;;;;;0.70;0.60;;;5.40;99.90;;;;;;5011569;28;20223;-73
2023/12/21 06:33:53;;;;;;;1.00;0.70;;;5.40;99.90;;;;;;5012357;28;20212;-73
2023/12/21 06:36:20;;;;;;;0.70;0.60;;;5.40;99.90;;;;;;5011896;28;20199;-73
2023/12/21 06:38:46;;;;;;;0.90;0.68;;;5.40;99.90;;;;;;5012555;28;20215;-74
2023/12/21 06:41:14;;;;;;;0.70;0.60;;;5.40;99.90;;;;;;5011425;28;20235;-74
2023/12/21 06:43:41;;;;;;;0.80;0.70;;;5.40;99.90;;;;;;5011768;28;20213;-75
2023/12/21 06:46:12;;;;;;;0.70;0.60;;;5.40;99.90;;;;;;5011993;28;20301;-75
2023/12/21 06:48:41;;;;;;;0.90;0.80;;;5.40;99.90;;;;;;5009368;28;20203;-76
2023/12/21 06:51:08;;;;;;;0.80;0.70;;;5.40;99.90;;;;;;5011464;28;20230;-78
2023/12/21 06:53:35;;;;;;;2.38;0.85;;;5.50;99.90;;;;;;5006629;28;20238;-77
2023/12/21 06:56:02;;;;;;;0.70;0.60;;;5.50;99.90;;;;;;5014651;28;20211;-75
2023/12/21 06:58:28;;;;;;;0.90;0.70;;;5.60;99.90;;;;;;5012589;28;20208;-74
2023/12/21 07:00:55;;;;;;;0.70;0.60;;;5.50;99.90;;;;;;5014262;28;20222;-76
2023/12/21 07:03:22;;;;;;;0.70;0.60;;;5.50;99.90;;;;;;5012371;28;20393;-76
2023/12/21 07:05:51;;;;;;;0.93;0.80;;;5.50;99.90;;;;;;5012206;28;20213;-75
2023/12/21 07:08:17;;;;;;;0.70;0.70;;;5.60;99.90;;;;;;5011918;28;20222;-75
2023/12/21 07:10:45;;;;;;;0.70;0.60;;;5.60;99.90;;;;;;5011822;28;20292;-76
2023/12/21 07:13:12;;;;;;;0.70;0.70;;;5.60;99.90;;;;;;5014017;28;20215;-78
2023/12/21 07:15:38;;;;;;;0.73;0.70;;;5.70;99.90;;;;;;5011724;28;20294;-76
2023/12/21 07:18:05;;;;;;;0.70;0.60;;;5.70;99.90;;;;;;5011163;28;20211;-76
2023/12/21 07:20:32;;;;;;;0.70;0.60;;;5.70;99.90;;;;;;5010921;28;20198;-76
2023/12/21 07:23:00;;;;;;;0.70;0.60;;;5.70;99.90;;;;;;5012001;28;20713;-77
2023/12/21 07:25:27;;;;;;;1.23;0.70;;;5.70;99.90;;;;;;5011689;28;20214;-77
2023/12/21 07:27:54;;;;;;;0.70;0.60;;;5.70;99.90;;;;;;5011235;28;20702;-76
2023/12/21 07:30:21;;;;;;;2.50;1.10;;;5.80;99.90;;;;;;5010547;28;20305;-77
2023/12/21 07:32:48;;;;;;;0.80;0.70;;;5.80;99.90;;;;;;5011326;28;20210;-78
2023/12/21 07:35:15;;;;;;;0.70;0.60;;;5.70;99.90;;;;;;5010728;28;20286;-75
2023/12/21 07:37:42;;;;;;;0.70;0.60;;;5.80;99.90;;;;;;5010809;28;20294;-76
2023/12/21 07:40:11;;;;;;;1.25;0.70;;;5.80;99.90;;;;;;5010574;28;20206;-76
2023/12/21 07:42:38;;;;;;;0.80;0.70;;;5.80;99.90;;;;;;5005075;28;20222;-76
2023/12/21 07:45:06;;;;;;;0.73;0.70;;;5.80;99.90;;;;;;5011153;28;20203;-76
2023/12/21 07:47:32;;;;;;;0.80;0.70;;;5.80;99.90;;;;;;5010179;28;20203;-77
2023/12/21 07:49:59;;;;;;;0.80;0.70;;;5.80;99.90;;;;;;5011489;28;20207;-76
2023/12/21 07:52:26;;;;;;;0.70;0.68;;;5.80;99.90;;;;;;5011245;28;20314;-75
2023/12/21 07:54:53;;;;;;;0.90;0.80;;;5.80;99.90;;;;;;5011455;28;20205;-76
2023/12/21 07:57:21;;;;;;;0.80;0.70;;;5.90;99.90;;;;;;5011180;28;20214;-76
2023/12/21 07:59:47;;;;;;;0.70;0.60;;;5.90;99.90;;;;;;5011546;28;20207;-76
2023/12/21 08:02:14;;;;;;;0.80;0.70;;;5.90;99.90;;;;;;5010815;28;20604;-76
2023/12/21 08:04:41;;;;;;;0.70;0.60;;;5.90;99.90;;;;;;5011441;28;20213;-76
2023/12/21 08:07:08;;;;;;;0.70;0.60;;;5.90;99.90;;;;;;5010753;28;20224;-77
2023/12/21 08:09:34;;;;;;;1.30;0.90;;;5.90;99.90;;;;;;5003465;28;20199;-77
2023/12/21 08:12:01;;;;;;;0.70;0.60;;;5.90;99.90;;;;;;5011718;28;20230;-77
2023/12/21 08:14:31;;;;;;;1.58;0.70;;;5.90;99.90;;;;;;5020392;28;20202;-75
2023/12/21 08:16:59;;;;;;;0.70;0.60;;;5.90;99.90;;;;;;5010544;28;20215;-78
2023/12/21 08:19:26;;;;;;;0.70;0.60;;;6.00;99.90;;;;;;5009026;28;20214;-78
2023/12/21 08:21:52;;;;;;;0.70;0.60;;;6.00;99.90;;;;;;5010189;28;20754;-78
2023/12/21 08:24:19;;;;;;;0.70;0.60;;;6.00;99.90;;;;;;5010851;28;20233;-79
2023/12/21 08:26:46;;;;;;;0.70;0.60;;;6.00;99.90;;;;;;5014013;28;20211;-80
2023/12/21 08:29:13;;;;;;;1.00;0.80;;;6.00;99.90;;;;;;5011539;28;20222;-78
2023/12/21 08:31:41;;;;;;;0.70;0.68;;;6.00;99.90;;;;;;5009815;28;20254;-79
2023/12/21 08:34:08;;;;;;;0.70;0.60;;;6.00;99.90;;;;;;5010152;28;20217;-79
2023/12/21 08:36:35;;;;;;;0.77;0.68;;;6.00;99.90;;;;;;5002875;28;20745;-77
2023/12/21 08:39:03;;;;;;;0.70;0.60;;;6.00;99.90;;;;;;5009237;28;20211;-78
2023/12/21 08:41:30;;;;;;;0.80;0.70;;;6.10;99.90;;;;;;5010158;28;20607;-78
2023/12/21 08:43:57;;;;;;;0.70;0.60;;;6.10;99.90;;;;;;5009342;28;20215;-77
2023/12/21 08:46:24;;;;;;;0.70;0.60;;;6.00;99.90;;;;;;5009365;28;20210;-77
2023/12/21 08:48:52;;;;;;;0.70;0.60;;;6.00;99.90;;;;;;5009696;28;20210;-77
2023/12/21 08:51:19;;;;;;;0.70;0.60;;;6.10;99.90;;;;;;5009097;28;20612;-77
2023/12/21 08:53:45;;;;;;;0.80;0.70;;;6.10;99.90;;;;;;5010409;28;20210;-79
2023/12/21 08:56:13;;;;;;;0.70;0.60;;;6.10;99.90;;;;;;5009961;28;20218;-79
2023/12/21 08:58:40;;;;;;;0.70;0.70;;;6.10;99.90;;;;;;5009780;28;20210;-78
2023/12/21 09:01:07;;;;;;;0.70;0.70;;;6.10;99.90;;;;;;5012844;28;20273;-77
2023/12/21 09:03:33;;;;;;;0.80;0.75;;;6.10;99.90;;;;;;5013179;28;20289;-77
2023/12/21 09:06:02;;;;;;;0.70;0.60;;;6.10;99.90;;;;;;5009810;28;20207;-75
2023/12/21 09:08:28;;;;;;;0.70;0.60;;;6.20;99.90;;;;;;5009877;28;21515;-76
2023/12/21 09:10:55;;;;;;;0.70;0.70;;;6.20;99.90;;;;;;5011513;28;20719;-77
2023/12/21 09:13:22;;;;;;;0.70;0.60;;;6.20;99.90;;;;;;5011745;28;20314;-77
2023/12/21 09:15:49;;;;;;;0.70;0.60;;;6.20;99.90;;;;;;5010325;28;20214;-77
2023/12/21 09:18:16;;;;;;;0.70;0.60;;;6.20;99.90;;;;;;5011599;28;20229;-77
2023/12/21 09:20:43;;;;;;;0.80;0.60;;;6.30;99.90;;;;;;5013155;28;20230;-77
2023/12/21 09:23:11;;;;;;;0.80;0.80;;;6.30;99.90;;;;;;5012651;28;20855;-76
2023/12/21 09:25:37;;;;;;;0.70;0.60;;;6.30;99.90;;;;;;5012891;28;20214;-76
2023/12/21 09:28:05;;;;;;;0.77;0.73;;;6.40;99.90;;;;;;5012630;28;20627;-76
2023/12/21 09:30:31;;;;;;;0.70;0.60;;;6.30;99.90;;;;;;5011810;28;20222;-74
2023/12/21 09:32:59;;;;;;;0.70;0.60;;;6.40;99.90;;;;;;5012285;28;20232;-77
2023/12/21 09:35:25;;;;;;;0.70;0.68;;;6.40;99.90;;;;;;5011523;28;20701;-77
2023/12/21 09:37:52;;;;;;;0.70;0.60;;;6.30;99.90;;;;;;5010908;28;20222;-77
2023/12/21 09:40:21;;;;;;;0.70;0.60;;;6.40;99.90;;;;;;5011267;28;20217;-78
2023/12/21 09:42:51;;;;;;;0.70;0.60;;;6.40;99.90;;;;;;5013822;28;20217;-79
2023/12/21 09:45:19;;;;;;;0.70;0.70;;;6.40;99.90;;;;;;5011581;28;20211;-77
2023/12/21 09:47:48;;;;;;;0.70;0.60;;;6.40;99.90;;;;;;5009321;28;20294;-77
2023/12/21 09:50:17;;;;;;;0.80;0.70;;;6.50;99.90;;;;;;5010972;28;20746;-78
2023/12/21 09:52:45;;;;;;;0.80;0.70;;;6.50;99.90;;;;;;5012566;28;20226;-77
2023/12/21 09:55:14;;;;;;;0.70;0.60;;;6.50;99.90;;;;;;5011612;28;20207;-77
2023/12/21 09:57:43;;;;;;;0.90;0.60;;;6.50;99.90;;;;;;5012241;28;20218;-77
2023/12/21 10:00:12;;;;;;;0.70;0.70;;;6.60;99.90;;;;;;5011560;28;20206;-76
2023/12/21 10:02:38;;;;;;;1.33;0.88;;;6.60;99.90;;;;;;5011888;28;20238;-77
2023/12/21 10:05:06;;;;;;;0.80;0.70;;;6.60;99.90;;;;;;5011989;28;20798;-76
2023/12/21 10:07:33;;;;;;;0.80;0.70;;;6.60;99.90;;;;;;5010937;28;20269;-76
2023/12/21 10:10:00;;;;;;;0.80;0.70;;;6.70;99.90;;;;;;5011606;28;20211;-79
2023/12/21 10:12:27;;;;;;;0.80;0.70;;;6.60;99.90;;;;;;5011478;28;20305;-75
2023/12/21 10:14:59;;;;;;;0.70;0.70;;;6.70;99.90;;;;;;5011995;28;20687;-79
2023/12/21 10:17:26;;;;;;;0.73;0.65;;;6.70;99.90;;;;;;5011614;28;20647;-75
2023/12/21 10:19:53;;;;;;;0.90;0.70;;;6.70;99.90;;;;;;5011399;28;20264;-80
2023/12/21 10:22:21;;;;;;;0.70;0.65;;;6.70;99.90;;;;;;5011610;28;20231;-79
2023/12/21 10:24:50;;;;;;;0.80;0.70;;;6.80;99.90;;;;;;5011780;28;20487;-79
2023/12/21 10:27:18;;;;;;;0.70;0.60;;;6.80;99.90;;;;;;5011736;28;20206;-77
2023/12/21 10:29:52;;;;;;;0.70;0.60;;;6.80;99.90;;;;;;5012355;28;20648;-77
2023/12/21 10:32:21;;;;;;;1.20;0.70;;;6.80;99.90;;;;;;5014358;28;20229;-82
2023/12/21 10:34:48;;;;;;;0.70;0.60;;;6.80;99.90;;;;;;5013627;28;20211;-79
2023/12/21 10:37:15;;;;;;;0.70;0.60;;;6.80;99.90;;;;;;5011944;28;20206;-79
2023/12/21 10:39:43;;;;;;;0.70;0.60;;;6.80;99.90;;;;;;5013160;28;20215;-80
2023/12/21 10:42:10;;;;;;;0.70;0.60;;;6.80;99.90;;;;;;5011749;28;20230;-77
2023/12/21 10:44:38;;;;;;;0.90;0.70;;;6.80;99.90;;;;;;5013157;28;20206;-77
2023/12/21 10:47:05;;;;;;;0.70;0.60;;;6.80;99.90;;;;;;5012993;28;20226;-77
2023/12/21 10:49:33;;;;;;;0.70;0.60;;;6.90;99.90;;;;;;5010849;28;20690;-77
2023/12/21 10:52:03;;;;;;;0.70;0.60;;;6.90;99.90;;;;;;5013159;28;20289;-79
2023/12/21 10:54:32;;;;;;;0.70;0.60;;;6.90;99.90;;;;;;5012305;28;20625;-77
2023/12/21 10:57:01;;;;;;;0.70;0.70;;;7.00;99.90;;;;;;5016299;28;20314;-74
2023/12/21 10:59:29;;;;;;;1.10;1.00;;;6.90;99.90;;;;;;5014375;28;20206;-76
2023/12/21 11:01:57;;;;;;;0.70;0.60;;;6.90;99.90;;;;;;5011709;28;20699;-76
2023/12/21 11:04:25;;;;;;;1.08;0.70;;;6.90;99.90;;;;;;5007218;28;20203;-77
2023/12/21 11:06:55;;;;;;;0.70;0.60;;;6.90;99.90;;;;;;5017362;28;20293;-78
2023/12/21 11:09:25;;;;;;;1.00;0.80;;;6.90;99.90;;;;;;5011133;28;20221;-79
2023/12/21 11:11:57;;;;;;;0.90;0.80;;;6.90;99.90;;;;;;5013291;28;20230;-75
2023/12/21 11:14:24;;;;;;;0.73;0.70;;;6.90;99.90;;;;;;5010210;28;20226;-74
2023/12/21 11:16:54;;;;;;;2.65;0.95;;;6.90;99.90;;;;;;5013360;28;20687;-81
2023/12/21 11:19:28;;;;;;;0.70;0.60;;;6.90;99.90;;;;;;5011590;28;20646;-80
2023/12/21 11:21:57;;;;;;;0.70;0.60;;;6.80;99.90;;;;;;5012738;28;20226;-81
2023/12/21 11:24:24;;;;;;;0.80;0.70;;;6.90;99.90;;;;;;5011928;28;20304;-79
2023/12/21 11:26:52;;;;;;;0.80;0.70;;;6.90;99.90;;;;;;5012598;28;20206;-78
2023/12/21 11:29:26;;;;;;;0.80;0.80;;;6.90;99.90;;;;;;5010758;28;20629;-79
2023/12/21 11:31:54;;;;;;;0.80;0.70;;;7.00;99.90;;;;;;5012289;28;20229;-75
2023/12/21 11:34:24;;;;;;;0.70;0.60;;;7.00;99.90;;;;;;5013388;28;20202;-79
2023/12/21 11:36:57;;;;;;;0.80;0.70;;;7.00;99.90;;;;;;5007121;28;20722;-79
2023/12/21 11:39:26;;;;;;;0.75;0.63;;;7.00;99.90;;;;;;5012818;28;20482;-81
2023/12/21 11:41:58;;;;;;;1.23;0.70;;;7.10;99.90;;;;;;5012632;28;20231;-77
2023/12/21 11:44:24;;;;;;;0.80;0.68;;;7.10;99.90;;;;;;5010434;28;20211;-76
2023/12/21 11:46:57;;;;;;;0.80;0.80;;;7.20;99.90;;;;;;5011455;28;20213;-77
2023/12/21 11:49:25;;;;;;;0.70;0.60;;;7.20;99.90;;;;;;5012980;28;20210;-79
2023/12/21 11:51:52;;;;;;;0.70;0.60;;;7.20;99.90;;;;;;5022233;28;20631;-76
2023/12/21 11:54:23;;;;;;;1.20;0.88;;;7.30;99.90;;;;;;5013015;28;20207;-78
2023/12/21 11:56:52;;;;;;;0.90;0.73;;;7.20;99.90;;;;;;5011815;28;20208;-78
2023/12/21 11:59:22;;;;;;;1.10;0.73;;;7.20;99.90;;;;;;5011577;28;20215;-78
2023/12/21 12:01:50;;;;;;;0.80;0.68;;;7.30;99.90;;;;;;5012829;28;20614;-76
2023/12/21 12:04:17;;;;;;;1.10;1.00;;;7.20;99.90;;;;;;5011337;28;20207;-79
2023/12/21 12:06:44;;;;;;;0.70;0.70;;;7.20;99.90;;;;;;5010190;28;20679;-75
2023/12/21 12:09:11;;;;;;;0.70;0.60;;;7.20;99.90;;;;;;5009720;28;20218;-76
2023/12/21 12:11:38;;;;;;;0.70;0.70;;;7.20;99.90;;;;;;5009812;28;20229;-76
2023/12/21 12:14:09;;;;;;;0.80;0.70;;;7.20;99.90;;;;;;5010192;28;20233;-75
2023/12/21 12:16:37;;;;;;;0.90;0.70;;;7.30;99.90;;;;;;5010011;28;20679;-75
2023/12/21 12:19:04;;;;;;;0.80;0.70;;;7.30;99.90;;;;;;5011311;28;20214;-74
2023/12/21 12:21:31;;;;;;;0.70;0.60;;;7.30;99.90;;;;;;5010332;28;20321;-77
2023/12/21 12:23:59;;;;;;;0.70;0.60;;;7.30;99.90;;;;;;5010671;28;20574;-76
2023/12/21 12:26:27;;;;;;;0.70;0.60;;;7.40;99.90;;;;;;5010158;28;20293;-75
2023/12/21 12:28:54;;;;;;;0.70;0.60;;;7.40;99.90;;;;;;5010924;28;20207;-75
2023/12/21 12:31:22;;;;;;;0.70;0.60;;;7.40;99.90;;;;;;5009864;28;20233;-75
2023/12/21 12:33:49;;;;;;;0.70;0.60;;;7.50;99.90;;;;;;5011026;28;20737;-74
2023/12/21 12:36:18;;;;;;;0.75;0.65;;;7.40;99.90;;;;;;5014034;28;20635;-75
2023/12/21 12:38:47;;;;;;;0.90;0.77;;;7.50;99.90;;;;;;5014521;28;20690;-75
2023/12/21 12:41:19;;;;;;;0.80;0.70;;;7.50;99.90;;;;;;5013637;28;20237;-75
2023/12/21 12:43:46;;;;;;;0.80;0.70;;;7.60;99.90;;;;;;5014208;28;20557;-75
2023/12/21 12:46:14;;;;;;;0.90;0.70;;;7.60;99.90;;;;;;5013749;28;20206;-74
2023/12/21 12:48:42;;;;;;;0.70;0.60;;;7.60;99.90;;;;;;5013699;28;20213;-74
2023/12/21 12:51:12;;;;;;;1.38;0.70;;;7.70;99.90;;;;;;5013454;28;20762;-75
2023/12/21 12:53:39;;;;;;;0.70;0.60;;;7.70;99.90;;;;;;5014404;28;20304;-74
2023/12/21 12:56:07;;;;;;;0.70;0.60;;;7.80;99.90;;;;;;5014172;28;20293;-78
2023/12/21 12:58:35;;;;;;;0.70;0.60;;;7.80;99.90;;;;;;5016254;28;20214;-77
2023/12/21 13:01:03;;;;;;;0.80;0.80;;;7.80;99.90;;;;;;5017444;28;20222;-78
2023/12/21 13:03:30;;;;;;;0.70;0.60;;;7.80;99.90;;;;;;5016742;28;20215;-78
2023/12/21 13:05:59;;;;;;;0.70;0.70;;;7.80;99.90;;;;;;5016682;28;20639;-75
2023/12/21 13:08:26;;;;;;;0.70;0.60;;;7.80;99.90;;;;;;5015847;28;20559;-79
2023/12/21 13:10:53;;;;;;;0.82;0.80;;;7.80;99.90;;;;;;5016292;28;20234;-80
2023/12/21 13:13:20;;;;;;;0.70;0.60;;;7.90;99.90;;;;;;5016813;28;20233;-79
2023/12/21 13:15:47;;;;;;;1.35;1.25;;;7.90;99.90;;;;;;5017862;28;20220;-79
2023/12/21 13:18:13;;;;;;;0.80;0.60;;;7.90;99.90;;;;;;5013634;28;20579;-78
2023/12/21 13:20:40;;;;;;;0.85;0.70;;;7.90;99.90;;;;;;5007254;28;20890;-78
2023/12/21 13:23:08;;;;;;;0.80;0.70;;;7.90;99.90;;;;;;5014053;28;20203;-78
2023/12/21 13:25:36;;;;;;;0.73;0.60;;;8.00;99.90;;;;;;5015051;28;20690;-78
2023/12/21 13:28:03;;;;;;;0.70;0.60;;;8.00;99.90;;;;;;5016708;28;20558;-80
2023/12/21 13:30:30;;;;;;;0.80;0.70;;;8.00;99.90;;;;;;5018826;28;20268;-80
2023/12/21 13:32:57;;;;;;;0.90;0.70;;;8.00;99.90;;;;;;5019417;28;20255;-78
2023/12/21 13:35:24;;;;;;;0.70;0.60;;;8.00;99.90;;;;;;5019337;28;20273;-79
2023/12/21 13:37:51;;;;;;;0.70;0.60;;;8.00;99.90;;;;;;5014596;28;20702;-76
2023/12/21 13:40:19;;;;;;;0.80;0.70;;;8.00;99.90;;;;;;5014759;28;20238;-79
2023/12/21 13:42:47;;;;;;;0.70;0.65;;;8.00;99.90;;;;;;5016539;28;20214;-79
2023/12/21 13:45:14;;;;;;;0.70;0.60;;;8.00;99.90;;;;;;5018505;28;20212;-78
2023/12/21 13:47:41;;;;;;;0.70;0.60;;;8.00;99.90;;;;;;5017544;28;20225;-78
2023/12/21 13:50:09;;;;;;;0.70;0.60;;;7.90;99.90;;;;;;5017621;28;20208;-80
2023/12/21 13:52:35;;;;;;;0.80;0.70;;;7.90;99.90;;;;;;5016962;28;20718;-79
2023/12/21 13:55:02;;;;;;;0.70;0.60;;;7.90;99.90;;;;;;5018882;28;20211;-78
2023/12/21 13:57:30;;;;;;;0.70;0.60;;;7.90;99.90;;;;;;5020662;28;20211;-79
2023/12/21 13:59:59;;;;;;;0.70;0.60;;;7.90;99.90;;;;;;5017346;28;20732;-79
2023/12/21 14:02:26;;;;;;;0.70;0.60;;;7.80;99.90;;;;;;5016243;28;20314;-79
2023/12/21 14:04:53;;;;;;;0.70;0.70;;;7.80;99.90;;;;;;5017195;28;20228;-75
2023/12/21 14:07:19;;;;;;;0.70;0.60;;;7.80;99.90;;;;;;5013820;28;20211;-78
2023/12/21 14:09:47;;;;;;;0.80;0.60;;;7.90;99.90;;;;;;5012128;28;20268;-77
2023/12/21 14:12:13;;;;;;;0.70;0.63;;;7.80;99.90;;;;;;5012710;28;20580;-78
2023/12/21 14:14:42;;;;;;;0.70;0.60;;;7.80;99.90;;;;;;5012611;28;20230;-78
2023/12/21 14:17:09;;;;;;;1.15;0.82;;;7.80;99.90;;;;;;5012517;28;20218;-77
2023/12/21 14:19:37;;;;;;;2.55;0.70;;;7.80;99.90;;;;;;5011066;28;20612;-77
2023/12/21 14:22:04;;;;;;;0.80;0.70;;;7.90;99.90;;;;;;5012803;28;20640;-77
2023/12/21 14:24:31;;;;;;;0.70;0.60;;;7.90;99.90;;;;;;5012300;28;20200;-77
2023/12/21 14:26:57;;;;;;;0.70;0.60;;;7.90;99.90;;;;;;5013130;28;20217;-76
2023/12/21 14:29:24;;;;;;;0.70;0.60;;;7.80;99.90;;;;;;5012382;28;20229;-77
2023/12/21 14:31:52;;;;;;;0.70;0.60;;;7.90;99.90;;;;;;5010491;28;20230;-76
2023/12/21 14:34:20;;;;;;;0.80;0.60;;;7.80;99.90;;;;;;5010873;28;20237;-77
2023/12/21 14:36:47;;;;;;;0.80;0.70;;;7.80;99.90;;;;;;5011740;28;20207;-76
2023/12/21 14:39:15;;;;;;;0.80;0.70;;;7.70;99.90;;;;;;5011375;28;20210;-78
2023/12/21 14:41:42;;;;;;;0.70;0.60;;;7.70;99.90;;;;;;5011968;28;20241;-78
2023/12/21 14:44:08;;;;;;;0.73;0.65;;;7.60;99.90;;;;;;5012550;28;20199;-77
2023/12/21 14:46:40;;;;;;;0.70;0.63;;;7.60;99.90;;;;;;5010897;28;20664;-78
2023/12/21 14:49:09;;;;;;;1.20;0.80;;;7.60;99.90;;;;;;5011270;28;20203;-76
2023/12/21 14:51:40;;;;;;;1.00;0.70;;;7.50;99.90;;;;;;5009158;28;20230;-77
2023/12/21 14:54:07;;;;;;;0.70;0.70;;;7.50;99.90;;;;;;5011344;28;20222;-75
2023/12/21 14:56:34;;;;;;;0.80;0.70;;;7.50;99.90;;;;;;5010444;28;20207;-77
2023/12/21 14:59:02;;;;;;;0.70;0.60;;;7.50;99.90;;;;;;5011484;28;20604;-77
2023/12/21 15:01:29;;;;;;;0.75;0.70;;;7.50;99.90;;;;;;5010342;28;20704;-78
2023/12/21 15:03:56;;;;;;;0.80;0.70;;;7.50;99.90;;;;;;5011684;28;20206;-78
2023/12/21 15:06:24;;;;;;;0.90;0.70;;;7.40;99.90;;;;;;5012726;28;20210;-78
2023/12/21 15:08:52;;;;;;;0.70;0.60;;;7.40;99.90;;;;;;5014941;28;20207;-78
2023/12/21 15:11:19;;;;;;;0.70;0.60;;;7.40;99.90;;;;;;5013152;28;20234;-78
2023/12/21 15:13:45;;;;;;;1.45;0.90;;;7.40;99.90;;;;;;5004859;28;20248;-80
2023/12/21 15:16:12;;;;;;;0.70;0.60;;;7.30;99.90;;;;;;5013699;28;20589;-78
2023/12/21 15:18:39;;;;;;;1.20;1.10;;;7.30;99.90;;;;;;5012634;28;20698;-77
2023/12/21 15:21:07;;;;;;;0.70;0.60;;;7.30;99.90;;;;;;5013028;28;20237;-78
2023/12/21 15:23:35;;;;;;;0.70;0.60;;;7.40;99.90;;;;;;5012025;28;20217;-79
2023/12/21 15:26:04;;;;;;;0.70;0.60;;;7.40;99.90;;;;;;5014423;28;20222;-78
2023/12/21 15:28:31;;;;;;;0.80;0.70;;;7.40;99.90;;;;;;5013763;28;20592;-77
2023/12/21 15:30:58;;;;;;;0.80;0.77;;;7.40;99.90;;;;;;5015427;28;20238;-78
2023/12/21 15:33:24;;;;;;;0.70;0.60;;;7.40;99.90;;;;;;5013593;28;20223;-77
2023/12/21 15:35:51;;;;;;;0.90;0.80;;;7.50;99.90;;;;;;5014041;28;20218;-77
2023/12/21 15:38:18;;;;;;;0.70;0.60;;;7.50;99.90;;;;;;5014352;28;20206;-78
2023/12/21 15:40:46;;;;;;;0.80;0.70;;;7.50;99.90;;;;;;5010296;28;20226;-77
2023/12/21 15:43:13;;;;;;;0.80;0.70;;;7.50;99.90;;;;;;5009691;28;20213;-77
2023/12/21 15:45:43;;;;;;;0.70;0.60;;;7.50;99.90;;;;;;5010470;28;20292;-77
2023/12/21 15:48:09;;;;;;;0.70;0.70;;;7.60;99.90;;;;;;5009760;28;20264;-78
2023/12/21 15:50:36;;;;;;;0.70;0.70;;;7.60;99.90;;;;;;5006918;28;20226;-77
2023/12/21 15:53:04;;;;;;;0.90;0.70;;;7.60;99.90;;;;;;5008998;28;20218;-77
2023/12/21 15:55:32;;;;;;;0.95;0.80;;;7.60;99.90;;;;;;5006719;28;20629;-76
2023/12/21 15:58:00;;;;;;;0.90;0.73;;;7.60;99.90;;;;;;5008648;28;20215;-77
2023/12/21 16:00:26;;;;;;;0.70;0.68;;;7.60;99.90;;;;;;5007500;28;20237;-78
2023/12/21 16:02:53;;;;;;;0.70;0.60;;;7.60;99.90;;;;;;5009052;28;20675;-78
2023/12/21 16:05:20;;;;;;;0.80;0.77;;;7.60;99.90;;;;;;5008685;28;20214;-77
2023/12/21 16:07:47;;;;;;;0.80;0.77;;;7.60;99.90;;;;;;5008875;28;20237;-77
2023/12/21 16:10:14;;;;;;;0.70;0.60;;;7.60;99.90;;;;;;5012188;28;20579;-78
2023/12/21 16:12:42;;;;;;;0.80;0.70;;;7.70;99.90;;;;;;5013206;28;20234;-78
2023/12/21 16:15:11;;;;;;;1.00;0.80;;;7.70;99.90;;;;;;5013402;28;20703;-77
2023/12/21 16:17:38;;;;;;;0.80;0.70;;;7.70;99.90;;;;;;5012491;28;20241;-82
2023/12/21 16:20:06;;;;;;;1.00;0.77;;;7.70;99.90;;;;;;5015748;28;20584;-79
2023/12/21 16:22:32;;;;;;;0.80;0.73;;;7.70;99.90;;;;;;5014577;28;20296;-79
2023/12/21 16:24:59;;;;;;;1.13;0.90;;;7.70;99.90;;;;;;5014261;28;20686;-79
2023/12/21 16:27:26;;;;;;;0.90;0.80;;;7.70;99.90;;;;;;5015422;28;20210;-79
2023/12/21 16:29:53;;;;;;;1.33;0.70;;;7.70;99.90;;;;;;5014720;28;20218;-80
2023/12/21 16:32:21;;;;;;;1.08;0.93;;;7.70;99.90;;;;;;5015458;28;20223;-79
2023/12/21 16:34:47;;;;;;;0.80;0.70;;;7.70;99.90;;;;;;5014277;28;20229;-80
2023/12/21 16:37:14;;;;;;;0.80;0.70;;;7.70;99.90;;;;;;5014595;28;20210;-79
2023/12/21 16:39:42;;;;;;;0.80;0.70;;;7.70;99.90;;;;;;5014439;28;20230;-80
2023/12/21 16:42:08;;;;;;;0.80;0.80;;;7.80;99.90;;;;;;5015233;28;20226;-79
2023/12/21 16:44:35;;;;;;;0.70;0.60;;;7.80;99.90;;;;;;5010900;28;20231;-78
2023/12/21 16:47:02;;;;;;;0.90;0.85;;;7.80;99.90;;;;;;5013540;28;20584;-78
2023/12/21 16:49:30;;;;;;;0.80;0.75;;;7.90;99.90;;;;;;5014075;28;20215;-80
2023/12/21 16:51:58;;;;;;;0.80;0.70;;;7.90;99.90;;;;;;5016406;28;20249;-79
2023/12/21 16:54:25;;;;;;;0.70;0.60;;;7.90;99.90;;;;;;5014231;28;20218;-80
2023/12/21 16:56:52;;;;;;;0.70;0.60;;;7.90;99.90;;;;;;5014550;28;20216;-78
2023/12/21 16:59:18;;;;;;;0.80;0.70;;;7.90;99.90;;;;;;5014090;28;20218;-79
2023/12/21 17:01:45;;;;;;;1.00;0.80;;;8.00;99.90;;;;;;5012929;28;20226;-80
2023/12/21 17:04:12;;;;;;;0.82;0.70;;;8.00;99.90;;;;;;5013630;28;20203;-77
2023/12/21 17:06:40;;;;;;;0.80;0.70;;;8.00;99.90;;;;;;5011309;28;20463;-82
2023/12/21 17:09:07;;;;;;;0.90;0.80;;;7.90;99.90;;;;;;5015431;28;20300;-80
2023/12/21 17:11:34;;;;;;;1.08;0.98;;;8.00;99.90;;;;;;5015860;28;20262;-79